createdAt,value
2023-04-18T00:02:07.273Z,102362.38
2023-04-18T00:06:19.416Z,102349.88
2023-04-18T00:10:30.998Z,102344.53
2023-04-18T00:14:43.737Z,102355.78
2023-04-18T00:18:57.163Z,102345.09
2023-04-18T00:23:08.775Z,102333.06
2023-04-18T00:27:21.015Z,102344.84
2023-04-18T00:31:32.635Z,102347.19
2023-04-18T00:35:44.467Z,102353.59
2023-04-18T00:39:56.012Z,102349.59
2023-04-18T00:44:07.566Z,102343.75
2023-04-18T00:48:19.216Z,102342.75
2023-04-18T00:52:33.721Z,102336.59
2023-04-18T00:56:45.799Z,102342.28
2023-04-18T01:00:57.498Z,102317.34
2023-04-18T01:05:09.696Z,102338.75
2023-04-18T01:09:23.977Z,102322.38
2023-04-18T01:13:37.014Z,102328.72
2023-04-18T01:17:48.709Z,102343.13
2023-04-18T01:22:00.454Z,102300.78
2023-04-18T01:26:12.240Z,102322.69
2023-04-18T01:30:24.094Z,102316.34
2023-04-18T01:34:36.296Z,102319.34
2023-04-18T01:38:51.038Z,102300.94
2023-04-18T01:43:02.926Z,102304.63
2023-04-18T01:47:14.857Z,102308.47
2023-04-18T01:51:28.521Z,102305.97
2023-04-18T01:55:40.224Z,102311.47
2023-04-18T01:59:51.932Z,102310.97
2023-04-18T02:04:03.833Z,102296.25
2023-04-18T02:08:15.600Z,102319.31
2023-04-18T02:12:29.721Z,102324.47
2023-04-18T02:16:42.499Z,102310.25
2023-04-18T02:20:54.249Z,102298.03
2023-04-18T02:25:07.471Z,102312.56
2023-04-18T02:29:19.455Z,102295.81
2023-04-18T02:33:31.118Z,102313.72
2023-04-18T02:37:42.942Z,102303.13
2023-04-18T02:41:58.185Z,102328.03
2023-04-18T02:46:10.302Z,102325.34
2023-04-18T02:50:22.081Z,102285.06
2023-04-18T02:54:34.366Z,102303.44
2023-04-18T02:58:53.755Z,102300.72
2023-04-18T03:03:25.132Z,102312.25
2023-04-18T03:07:46.105Z,102313.25
2023-04-18T03:11:58.025Z,102302.16
2023-04-18T03:16:13.679Z,102313.38
2023-04-18T03:20:27.372Z,102311.50
2023-04-18T03:24:39.209Z,102290.91
2023-04-18T03:28:52.625Z,102317.50
2023-04-18T03:33:05.273Z,102311.28
2023-04-18T03:37:17.720Z,102304.75
2023-04-18T03:41:35.368Z,102287.66
2023-04-18T03:45:48.626Z,102293.25
2023-04-18T03:50:02.196Z,102290.28
2023-04-18T03:54:16.548Z,102327.28
2023-04-18T03:58:28.574Z,102305.38
2023-04-18T04:02:40.942Z,102307.06
2023-04-18T04:06:54.679Z,102316.59
2023-04-18T04:11:06.434Z,102319.97
2023-04-18T04:15:18.534Z,102313.63
2023-04-18T04:19:51.317Z,102312.16
2023-04-18T04:24:05.192Z,102323.38
2023-04-18T04:28:23.449Z,102319.38
2023-04-18T04:32:40.939Z,102317.22
2023-04-18T04:36:53.988Z,102319.59
2023-04-18T04:41:08.008Z,102328.28
2023-04-18T04:45:25.388Z,102319.44
2023-04-18T04:49:37.563Z,102335.63
2023-04-18T04:53:49.198Z,102325.63
2023-04-18T04:58:01.048Z,102322.94
2023-04-18T05:02:26.785Z,102326.97
2023-04-18T05:06:40.253Z,102329.50
2023-04-18T05:10:52.091Z,102340.19
2023-04-18T05:15:04.092Z,102336.84
2023-04-18T05:19:15.891Z,102343.84
2023-04-18T05:23:27.527Z,102355.22
2023-04-18T05:27:39.488Z,102356.44
2023-04-18T05:31:51.120Z,102357.63
2023-04-18T05:36:03.214Z,102350.44
2023-04-18T05:40:14.837Z,102353.47
2023-04-18T05:44:26.528Z,102342.44
2023-04-18T05:48:38.117Z,102328.88
2023-04-18T05:52:49.736Z,102346.78
2023-04-18T05:57:03.180Z,102363.53
2023-04-18T06:01:16.196Z,102357.66
2023-04-18T06:05:28.284Z,102363.53
2023-04-18T06:09:40.491Z,102368.91
2023-04-18T06:13:52.188Z,102375.44
2023-04-18T06:18:04.007Z,102354.81
2023-04-18T06:22:15.696Z,102341.09
2023-04-18T06:26:27.356Z,102362.13
2023-04-18T06:30:39.101Z,102371.31
2023-04-18T06:34:51.086Z,102381.00
2023-04-18T06:39:03.088Z,102380.97
2023-04-18T06:43:14.769Z,102398.81
2023-04-18T06:47:26.664Z,102373.69
2023-04-18T06:51:38.320Z,102373.19
2023-04-18T06:55:50.395Z,102394.16
2023-04-18T07:00:02.299Z,102398.22
2023-04-18T07:04:14.352Z,102407.06
2023-04-18T07:08:27.582Z,102404.00
2023-04-18T07:12:39.292Z,102386.91
2023-04-18T07:16:51.664Z,102401.41
2023-04-18T07:21:03.516Z,102409.06
2023-04-18T07:25:15.360Z,102405.22
2023-04-18T07:29:27.028Z,102421.69
2023-04-18T07:33:43.439Z,102398.44
2023-04-18T07:37:55.209Z,102406.84
2023-04-18T07:42:06.959Z,102428.00
2023-04-18T07:46:19.157Z,102418.31
2023-04-18T07:50:31.169Z,102419.44
2023-04-18T07:54:42.807Z,102390.41
2023-04-18T07:58:54.616Z,102432.09
2023-04-18T08:03:07.716Z,102431.41
2023-04-18T08:07:19.636Z,102445.44
2023-04-18T08:11:35.131Z,102428.84
2023-04-18T08:15:47.127Z,102444.38
2023-04-18T08:20:00.912Z,102435.53
2023-04-18T08:24:12.572Z,102431.06
2023-04-18T08:28:34.784Z,102405.31
2023-04-18T08:32:46.951Z,102419.03
2023-04-18T08:36:58.690Z,102445.03
2023-04-18T08:41:10.609Z,102439.06
2023-04-18T08:45:22.323Z,102461.31
2023-04-18T08:49:34.056Z,102464.97
2023-04-18T08:53:45.883Z,102459.31
2023-04-18T08:57:57.731Z,102449.28
2023-04-18T09:02:10.228Z,102466.41
2023-04-18T09:06:22.076Z,102446.88
2023-04-18T09:10:36.546Z,102453.16
2023-04-18T09:14:56.550Z,102457.34
2023-04-18T09:19:18.723Z,102464.16
2023-04-18T09:23:31.029Z,102449.34
2023-04-18T09:27:42.761Z,102449.56
2023-04-18T09:32:02.312Z,102442.56
2023-04-18T09:36:25.256Z,102450.47
2023-04-18T09:40:36.996Z,102472.72
2023-04-18T09:45:09.462Z,102466.84
2023-04-18T09:49:21.315Z,102433.41
2023-04-18T09:53:41.370Z,102428.75
2023-04-18T09:57:54.065Z,102429.72
2023-04-18T10:02:10.123Z,102408.47
2023-04-18T10:06:22.237Z,102440.53
2023-04-18T10:10:33.914Z,102433.69
2023-04-18T10:14:45.907Z,102431.81
2023-04-18T10:18:58.388Z,102421.09
2023-04-18T10:23:31.378Z,102411.50
2023-04-18T10:27:49.421Z,102419.44
2023-04-18T10:32:06.975Z,102424.72
2023-04-18T10:36:21.609Z,102443.22
2023-04-18T10:40:34.949Z,102400.47
2023-04-18T10:45:21.168Z,102444.28
2023-04-18T10:49:36.120Z,102420.66
2023-04-18T10:53:57.688Z,102426.19
2023-04-18T10:58:09.530Z,102416.88
2023-04-18T11:02:37.202Z,102392.84
2023-04-18T11:06:55.040Z,102383.84
2023-04-18T11:11:09.559Z,102409.19
2023-04-18T11:15:25.592Z,102411.53
2023-04-18T11:19:37.358Z,102409.28
2023-04-18T11:23:51.858Z,102403.91
2023-04-18T11:28:04.902Z,102396.94
2023-04-18T11:32:16.944Z,102387.50
2023-04-18T11:36:35.119Z,102345.72
2023-04-18T11:40:50.771Z,102386.66
2023-04-18T11:45:03.379Z,102376.16
2023-04-18T11:49:31.409Z,102388.03
2023-04-18T11:53:43.249Z,102402.81
2023-04-18T11:58:02.496Z,102372.06
2023-04-18T12:02:16.807Z,102371.50
2023-04-18T12:06:45.904Z,102388.28
2023-04-18T12:10:57.705Z,102385.94
2023-04-18T12:15:14.833Z,102393.22
2023-04-18T12:19:30.320Z,102393.03
2023-04-18T12:23:50.447Z,102389.34
2023-04-18T12:28:15.803Z,102355.53
2023-04-18T12:32:31.092Z,102359.25
2023-04-18T13:03:59.922Z,102334.47
2023-04-18T13:15:01.454Z,102369.88
2023-04-18T13:19:13.277Z,102366.53
2023-04-18T13:23:25.298Z,102375.91
2023-04-18T13:27:41.318Z,102373.38
2023-04-18T13:31:53.479Z,102382.81
2023-04-18T13:36:05.671Z,102369.97
2023-04-18T13:40:17.452Z,102375.41
2023-04-18T13:44:30.283Z,102371.84
2023-04-18T13:48:41.935Z,102398.19
2023-04-18T13:52:54.718Z,102368.19
2023-04-18T13:57:11.422Z,102362.66
2023-04-18T14:01:23.095Z,102370.75
2023-04-18T14:05:35.933Z,102371.91
2023-04-18T14:09:48.265Z,102376.56
2023-04-18T14:13:59.995Z,102364.09
2023-04-18T14:18:11.751Z,102358.56
2023-04-18T14:22:23.433Z,102365.81
2023-04-18T14:26:35.178Z,102366.66
2023-04-18T14:30:46.978Z,102353.28
2023-04-18T14:34:59.202Z,102343.81
2023-04-18T14:39:11.190Z,102350.72
2023-04-18T14:43:23.153Z,102358.19
2023-04-18T14:47:34.900Z,102345.97
2023-04-18T14:51:46.623Z,102351.88
2023-04-18T14:55:58.372Z,102357.28
2023-04-18T15:00:11.322Z,102351.19
2023-04-18T15:04:23.305Z,102334.78
2023-04-18T15:08:35.129Z,102342.03
2023-04-18T15:12:46.914Z,102340.81
2023-04-18T15:16:58.653Z,102333.34
2023-04-18T15:21:10.477Z,102339.38
2023-04-18T15:25:22.316Z,102342.94
2023-04-18T15:29:34.077Z,102329.28
2023-04-18T15:33:45.741Z,102342.53
2023-04-18T15:37:57.754Z,102339.59
2023-04-18T15:42:09.661Z,102327.94
2023-04-18T15:46:21.385Z,102336.47
2023-04-18T15:50:33.838Z,102323.34
2023-04-18T15:54:45.680Z,102322.72
2023-04-18T15:58:58.732Z,102305.91
2023-04-18T16:03:10.559Z,102319.88
2023-04-18T16:07:22.563Z,102314.50
2023-04-18T16:11:34.241Z,102297.84
2023-04-18T16:15:45.981Z,102296.03
2023-04-18T16:19:57.607Z,102312.66
2023-04-18T16:24:09.319Z,102306.66
2023-04-18T16:28:21.648Z,102321.03
2023-04-18T16:32:33.514Z,102309.41
2023-04-18T16:36:45.268Z,102304.22
2023-04-18T16:40:57.534Z,102318.63
2023-04-18T16:45:09.433Z,102325.69
2023-04-18T16:49:21.024Z,102322.78
2023-04-18T16:53:32.687Z,102311.75
2023-04-18T16:57:44.250Z,102303.22
2023-04-18T17:01:55.909Z,102316.94
2023-04-18T17:06:07.682Z,102313.47
2023-04-18T17:10:19.444Z,102310.34
2023-04-18T17:14:31.063Z,102305.19
2023-04-18T17:18:42.892Z,102301.50
2023-04-18T17:22:54.975Z,102313.34
2023-04-18T17:27:06.711Z,102296.31
2023-04-18T17:31:18.608Z,102313.38
2023-04-18T17:35:30.243Z,102313.38
2023-04-18T17:39:41.988Z,102312.34
2023-04-18T17:43:53.688Z,102296.97
2023-04-18T17:48:05.604Z,102294.47
2023-04-18T17:52:17.889Z,102305.03
2023-04-18T17:56:30.480Z,102310.47
2023-04-18T18:00:42.090Z,102311.91
2023-04-18T18:04:54.207Z,102315.44
2023-04-18T18:09:05.871Z,102306.13
2023-04-18T18:13:17.564Z,102316.72
2023-04-18T18:17:29.246Z,102323.78
2023-04-18T18:21:41.377Z,102322.75
2023-04-18T18:25:53.071Z,102320.84
2023-04-18T18:30:05.411Z,102320.44
2023-04-18T18:34:17.062Z,102332.28
2023-04-18T18:38:28.702Z,102323.31
2023-04-18T18:42:40.462Z,102323.31
2023-04-18T18:46:52.182Z,102336.78
2023-04-18T18:51:04.008Z,102339.69
2023-04-18T18:55:20.998Z,102348.78
2023-04-18T18:59:32.866Z,102343.78
2023-04-18T19:03:44.636Z,102339.19
2023-04-18T19:07:57.203Z,102353.91
2023-04-18T19:12:10.644Z,102375.06
2023-04-18T19:16:22.331Z,102374.19
2023-04-18T19:20:35.057Z,102372.84
2023-04-18T19:24:50.396Z,102375.16
2023-04-18T19:29:02.119Z,102383.00
2023-04-18T19:33:38.548Z,102385.00
2023-04-18T19:37:50.364Z,102388.06
2023-04-18T19:42:05.147Z,102389.88
2023-04-18T19:46:16.899Z,102390.47
2023-04-18T19:50:28.654Z,102375.00
2023-04-18T19:54:40.367Z,102370.56
2023-04-18T19:58:52.209Z,102396.97
2023-04-18T20:03:04.113Z,102401.22
2023-04-18T20:07:16.384Z,102409.75
2023-04-18T20:11:28.086Z,102408.22
2023-04-18T20:15:40.417Z,102415.03
2023-04-18T20:19:52.069Z,102416.00
2023-04-18T20:24:03.774Z,102401.56
2023-04-18T20:28:15.726Z,102416.06
2023-04-18T20:32:28.084Z,102411.00
2023-04-18T20:36:42.718Z,102375.19
2023-04-18T20:40:54.697Z,102417.25
2023-04-18T20:45:11.759Z,102404.16
2023-04-18T20:49:39.029Z,102407.63
2023-04-18T20:53:50.783Z,102420.06
2023-04-18T20:58:11.742Z,102413.66
2023-04-18T21:02:56.135Z,102436.41
2023-04-18T21:07:34.450Z,102415.63
2023-04-18T21:11:53.645Z,102397.66
2023-04-18T21:21:02.377Z,102426.22
2023-04-18T21:25:13.938Z,102457.38
2023-04-18T21:29:25.730Z,102445.53
2023-04-18T21:33:37.394Z,102441.53
2023-04-18T21:37:49.110Z,102429.16
2023-04-18T21:42:01.916Z,102432.34
2023-04-18T21:46:14.157Z,102434.00
2023-04-18T21:50:25.857Z,102430.84
2023-04-18T21:54:37.941Z,102435.56
2023-04-18T21:58:49.638Z,102424.44
2023-04-18T22:03:01.489Z,102419.91
2023-04-18T22:07:15.531Z,102432.16
2023-04-18T22:11:27.290Z,102428.81
2023-04-18T22:15:39.365Z,102438.91
2023-04-18T22:19:51.149Z,102428.63
2023-04-18T22:24:03.223Z,102423.13
2023-04-18T22:28:14.841Z,102421.47
2023-04-18T22:32:26.484Z,102428.03
2023-04-18T22:36:38.186Z,102446.25
2023-04-18T22:40:49.895Z,102433.88
2023-04-18T22:45:01.594Z,102424.25
2023-04-18T22:49:13.302Z,102426.66
2023-04-18T22:53:24.993Z,102446.97
2023-04-18T22:57:38.209Z,102444.03
2023-04-18T23:01:49.912Z,102444.31
2023-04-18T23:06:01.627Z,102444.09
2023-04-18T23:10:13.280Z,102447.16
2023-04-18T23:14:24.981Z,102448.84
2023-04-18T23:18:36.687Z,102445.50
2023-04-18T23:22:51.334Z,102437.69
2023-04-18T23:27:03.069Z,102440.38
2023-04-18T23:31:14.817Z,102437.78
2023-04-18T23:35:26.492Z,102429.34
2023-04-18T23:39:38.148Z,102436.66
2023-04-18T23:43:49.766Z,102422.28
2023-04-18T23:48:01.557Z,102426.19
2023-04-18T23:52:13.216Z,102444.63
2023-04-18T23:56:24.924Z,102430.72
